Time;durP1;ratioP1;P1;durP2;ratioP2;P2;SDS_P1;SDS_P2;PMS_P1;PMS_P2;Temp;Humidity;BMP_temperature;BMP_pressure;BME280_temperature;BME280_humidity;BME280_pressure;Samples;Min_cycle;Max_cycle;Signal;HPM_P1;HPM_P2
2022/09/10 00:01:22;;;;;;;0.30;0.30;;;;;;;25.88;46.65;94995.16;5029089;28;20646;-69
2022/09/10 00:03:49;;;;;;;0.77;0.70;;;;;;;26.05;46.19;94978.72;5027906;28;20303;-67
2022/09/10 00:06:17;;;;;;;0.60;0.60;;;;;;;26.15;45.82;94986.22;5017141;28;20244;-68
2022/09/10 00:08:46;;;;;;;1.77;1.33;;;;;;;26.12;45.72;94986.13;5028904;28;20197;-67
2022/09/10 00:11:13;;;;;;;0.70;0.70;;;;;;;25.79;46.55;94995.38;5014747;28;20278;-66
2022/09/10 00:13:41;;;;;;;4.63;1.90;;;;;;;25.36;47.51;94983.94;5031911;28;20232;-68
2022/09/10 00:16:11;;;;;;;2.30;1.57;;;;;;;25.42;47.47;94985.28;5014201;28;20190;-69
2022/09/10 00:18:39;;;;;;;0.90;0.80;;;;;;;25.48;47.23;94986.56;5024582;28;20193;-67
2022/09/10 00:21:09;;;;;;;1.43;1.33;;;;;;;25.82;46.53;94994.66;5031704;28;20193;-68
2022/09/10 00:23:36;;;;;;;0.57;0.57;;;;;;;25.78;46.64;94984.97;5033076;28;20670;-67
2022/09/10 00:26:15;;;;;;;3.07;1.73;;;;;;;26.03;45.86;94989.00;5018820;28;20281;-66
2022/09/10 00:28:42;;;;;;;1.90;1.00;;;;;;;26.09;45.67;94986.84;5032407;28;20189;-67
2022/09/10 00:31:09;;;;;;;1.07;0.70;;;;;;;26.29;45.48;94985.75;5032354;28;20605;-67
2022/09/10 00:33:37;;;;;;;1.30;1.20;;;;;;;26.23;45.37;94990.63;5048461;28;20197;-69
2022/09/10 00:36:13;;;;;;;0.70;0.70;;;;;;;26.24;45.42;94994.84;5017367;28;20197;-67
2022/09/10 00:38:40;;;;;;;0.73;0.73;;;;;;;26.27;45.32;94994.16;5047693;28;20236;-68
2022/09/10 00:41:08;;;;;;;0.70;0.70;;;;;;;26.22;45.35;94994.44;5031428;28;20721;-68
2022/09/10 00:43:59;;;;;;;0.83;0.80;;;;;;;26.15;46.00;95005.00;5032417;28;20278;-68
2022/09/10 00:46:35;;;;;;;1.50;1.33;;;;;;;26.15;45.78;94996.97;5032709;28;20208;-68
2022/09/10 00:49:11;;;;;;;1.13;1.13;;;;;;;26.20;45.65;94980.59;5032034;28;20201;-67
2022/09/10 00:51:39;;;;;;;0.63;0.63;;;;;;;26.23;45.91;94990.63;5018097;28;20743;-68
2022/09/10 00:54:06;;;;;;;1.93;1.37;;;;;;;26.27;45.84;94990.69;5032165;28;20212;-66
2022/09/10 00:56:34;;;;;;;2.10;1.60;;;;;;;26.21;46.31;94989.41;5030820;28;20201;-68
2022/09/10 00:59:03;;;;;;;1.40;1.30;;;;;;;26.29;45.72;94983.84;5030450;28;20197;-67
2022/09/10 01:01:32;;;;;;;1.00;1.00;;;;;;;26.26;45.86;94978.41;5031999;28;20193;-66
2022/09/10 01:04:00;;;;;;;1.03;0.53;;;;;;;26.28;45.62;94982.28;5029382;28;20279;-66
2022/09/10 01:06:27;;;;;;;1.23;1.20;;;;;;;26.20;45.76;94985.97;5019893;28;20308;-69
2022/09/10 01:08:54;;;;;;;1.13;0.57;;;;;;;26.22;45.80;94975.66;5017854;28;20194;-66
2022/09/10 01:11:36;;;;;;;0.83;0.77;;;;;;;26.23;45.74;94985.25;5030579;28;20278;-68
2022/09/10 01:14:25;;;;;;;2.37;1.63;;;;;;;26.24;45.88;94981.41;5046790;28;20193;-68
2022/09/10 01:17:08;;;;;;;1.10;0.97;;;;;;;26.22;46.04;94978.34;5030546;28;20239;-68
2022/09/10 01:19:57;;;;;;;1.03;0.90;;;;;;;26.01;46.87;94980.50;5031638;28;20216;-67
2022/09/10 01:22:36;;;;;;;0.80;0.80;;;;;;;26.10;46.35;94981.13;5047261;28;20301;-68
2022/09/10 01:25:42;;;;;;;0.83;0.60;;;;;;;26.14;46.07;94981.97;5017352;28;20219;-67
2022/09/10 01:28:20;;;;;;;2.17;1.30;;;;;;;26.14;46.18;94967.78;5029853;28;20282;-68
2022/09/10 01:30:53;;;;;;;0.80;0.80;;;;;;;26.17;46.25;94983.97;5030456;28;20283;-66
2022/09/10 01:33:41;;;;;;;0.40;0.40;;;;;;;26.18;46.07;94974.00;5033270;28;20576;-68
2022/09/10 01:36:22;;;;;;;1.40;0.87;;;;;;;26.27;46.25;94967.31;5044753;28;20267;-68
2022/09/10 01:38:50;;;;;;;1.00;1.00;;;;;;;26.18;46.20;94960.56;5019355;28;20262;-66
2022/09/10 01:41:22;;;;;;;1.70;0.97;;;;;;;26.23;45.97;94961.06;5029686;28;20216;-67
2022/09/10 01:43:49;;;;;;;0.93;0.93;;;;;;;26.11;46.13;94961.22;5031565;28;20224;-68
2022/09/10 01:46:28;;;;;;;0.97;0.97;;;;;;;26.14;46.14;94954.34;5030591;28;20224;-67
2022/09/10 01:49:08;;;;;;;1.87;1.70;;;;;;;25.58;47.43;94959.22;5020786;28;20189;-67
2022/09/10 01:51:55;;;;;;;0.97;0.97;;;;;;;25.48;47.59;94959.72;5035575;28;20803;-68
2022/09/10 01:54:50;;;;;;;1.27;0.87;;;;;;;25.78;47.17;94958.13;5031534;28;20284;-69
2022/09/10 01:57:59;;;;;;;1.30;1.13;;;;;;;26.02;46.54;94964.03;5030259;28;20212;-69
2022/09/10 02:00:37;;;;;;;1.37;1.27;;;;;;;26.11;46.41;94963.91;4972509;28;20226;-67
2022/09/10 02:03:10;;;;;;;3.57;1.67;;;;;;;26.20;46.28;94963.69;5013787;28;20235;-68
2022/09/10 02:05:40;;;;;;;0.77;0.77;;;;;;;26.17;46.03;94970.53;5011186;28;20665;-68
2022/09/10 02:08:15;;;;;;;0.73;0.73;;;;;;;26.16;45.80;94969.00;5020313;28;20204;-67
2022/09/10 02:10:49;;;;;;;1.10;1.07;;;;;;;26.30;45.76;94971.19;5052449;28;20209;-66
2022/09/10 02:13:16;;;;;;;0.50;0.50;;;;;;;26.26;45.50;94989.16;5029712;28;20201;-69
2022/09/10 02:16:07;;;;;;;1.17;1.07;;;;;;;26.10;45.89;94993.75;5028894;28;20204;-67
2022/09/10 02:18:41;;;;;;;0.60;0.60;;;;;;;26.12;45.58;94967.34;5030946;28;20211;-68
2022/09/10 02:21:10;;;;;;;0.73;0.73;;;;;;;25.96;46.24;94970.84;5045614;28;20201;-67
2022/09/10 02:23:49;;;;;;;1.07;1.00;;;;;;;26.03;46.12;94962.16;5030691;28;20263;-69
2022/09/10 02:26:16;;;;;;;1.83;1.17;;;;;;;25.90;46.25;94966.06;5029119;28;20215;-67
2022/09/10 02:28:43;;;;;;;1.43;1.33;;;;;;;26.13;45.81;94975.03;5020370;28;20194;-67
2022/09/10 02:31:11;;;;;;;0.93;0.80;;;;;;;26.24;45.67;94970.66;5025892;28;20590;-67
2022/09/10 02:33:38;;;;;;;1.33;1.23;;;;;;;26.24;45.68;94976.03;5030681;28;20209;-69
2022/09/10 02:36:05;;;;;;;1.20;1.10;;;;;;;26.04;46.03;94966.41;5045477;28;20209;-67
2022/09/10 02:38:32;;;;;;;1.80;1.00;;;;;;;26.20;45.82;94958.31;5031155;28;20307;-66
2022/09/10 02:40:59;;;;;;;0.83;0.83;;;;;;;26.25;45.46;94966.09;5048869;28;20232;-67
2022/09/10 02:43:27;;;;;;;0.77;0.77;;;;;;;26.30;45.70;94980.03;5032534;28;20283;-68
2022/09/10 02:45:57;;;;;;;1.67;1.47;;;;;;;26.32;45.49;94977.75;5033096;28;20198;-68
2022/09/10 02:48:25;;;;;;;0.83;0.83;;;;;;;26.28;45.50;94981.50;5014653;28;20189;-69
2022/09/10 02:50:56;;;;;;;2.10;1.73;;;;;;;26.34;45.31;94980.88;5019409;28;20672;-68
2022/09/10 02:53:25;;;;;;;0.93;0.83;;;;;;;26.07;45.98;94981.84;5042181;28;20212;-68
2022/09/10 02:55:55;;;;;;;0.57;0.57;;;;;;;26.09;45.86;94978.78;5035576;28;20240;-67
2022/09/10 02:58:23;;;;;;;2.37;1.87;;;;;;;26.18;45.63;94982.06;5022974;28;20307;-68
2022/09/10 03:00:50;;;;;;;0.83;0.83;;;;;;;26.22;45.77;94981.03;5044894;28;20284;-67
2022/09/10 03:03:17;;;;;;;0.77;0.77;;;;;;;26.08;46.02;94980.69;5029942;28;20255;-66
2022/09/10 03:05:44;;;;;;;0.57;0.57;;;;;;;26.05;45.79;94978.72;5026673;28;20264;-68
2022/09/10 03:08:12;;;;;;;1.63;1.30;;;;;;;26.06;46.11;94982.19;5017890;28;20636;-69
2022/09/10 03:10:42;;;;;;;0.40;0.40;;;;;;;25.92;46.62;94982.63;5028185;28;20663;-68
2022/09/10 03:13:10;;;;;;;1.43;1.33;;;;;;;26.03;46.12;94989.00;5037159;28;20576;-67
2022/09/10 03:15:37;;;;;;;0.70;0.70;;;;;;;26.00;46.37;94987.03;5022866;28;20193;-69
2022/09/10 03:18:04;;;;;;;0.63;0.63;;;;;;;25.97;46.31;94983.13;5029605;28;20629;-66
2022/09/10 03:20:31;;;;;;;4.13;2.37;;;;;;;26.11;46.04;94982.69;5045370;28;20327;-66
2022/09/10 03:22:58;;;;;;;0.80;0.80;;;;;;;26.17;46.00;94988.56;5028257;28;20291;-68
2022/09/10 03:25:24;;;;;;;0.80;0.80;;;;;;;25.79;46.62;94987.31;5028030;28;20747;-67
2022/09/10 03:27:56;;;;;;;0.97;0.97;;;;;;;25.99;46.27;94980.09;5029392;28;20660;-67
2022/09/10 03:30:24;;;;;;;0.73;0.73;;;;;;;26.06;46.17;94984.88;5028379;28;20209;-68
2022/09/10 03:32:53;;;;;;;1.80;1.03;;;;;;;25.95;46.49;94980.00;5028368;28;20212;-68
2022/09/10 03:35:21;;;;;;;0.47;0.47;;;;;;;25.90;46.62;94971.44;5028662;28;20270;-67
2022/09/10 03:37:48;;;;;;;0.70;0.70;;;;;;;26.08;46.60;94967.25;5044783;28;20199;-67
2022/09/10 03:40:15;;;;;;;0.40;0.40;;;;;;;26.08;46.62;94975.31;5037148;28;20276;-68
2022/09/10 03:42:42;;;;;;;0.67;0.67;;;;;;;25.82;47.14;94973.19;5023367;28;20259;-66
2022/09/10 03:45:10;;;;;;;1.37;0.80;;;;;;;25.59;47.40;94963.44;5038978;28;20732;-67
2022/09/10 03:47:38;;;;;;;1.87;1.40;;;;;;;25.77;47.16;94967.31;5021702;28;20193;-68
2022/09/10 03:50:05;;;;;;;0.63;0.63;;;;;;;25.70;47.53;94972.50;5044770;28;20194;-67
2022/09/10 03:52:32;;;;;;;0.80;0.80;;;;;;;25.35;48.52;94961.69;5023350;28;20276;-67
2022/09/10 03:55:00;;;;;;;0.43;0.43;;;;;;;25.39;48.04;94945.69;5032302;28;20208;-68
2022/09/10 03:57:27;;;;;;;0.93;0.93;;;;;;;25.47;48.21;94958.97;5017921;28;20221;-68
2022/09/10 03:59:55;;;;;;;0.80;0.63;;;;;;;25.73;47.42;94953.03;5031732;28;20251;-68
2022/09/10 04:02:22;;;;;;;7.57;2.77;;;;;;;25.74;47.37;94952.69;5031681;28;20586;-68
2022/09/10 04:04:49;;;;;;;2.83;1.40;;;;;;;25.67;47.69;94941.81;5022391;28;20228;-67
2022/09/10 04:07:16;;;;;;;0.97;0.97;;;;;;;25.83;47.27;94947.13;5047174;28;20266;-66
2022/09/10 04:09:43;;;;;;;1.83;1.53;;;;;;;25.94;47.09;94953.50;5049230;28;20236;-68
2022/09/10 04:12:11;;;;;;;5.73;1.00;;;;;;;25.92;47.04;94961.13;5048578;28;20618;-67
2022/09/10 04:14:38;;;;;;;0.60;0.60;;;;;;;25.83;47.07;94960.56;5031869;28;20189;-65
2022/09/10 04:17:05;;;;;;;0.33;0.33;;;;;;;25.81;47.03;94957.44;5032011;28;20557;-67
2022/09/10 04:19:32;;;;;;;3.37;1.60;;;;;;;25.62;47.65;94955.47;5031506;28;20189;-69
2022/09/10 04:21:58;;;;;;;1.17;0.80;;;;;;;25.36;48.46;94962.47;5032807;28;20193;-67
2022/09/10 04:24:25;;;;;;;0.70;0.70;;;;;;;25.69;47.49;94965.59;5017462;28;20209;-66
2022/09/10 04:26:52;;;;;;;0.97;0.97;;;;;;;25.78;47.38;94971.56;5048372;28;20292;-68
2022/09/10 04:29:21;;;;;;;1.27;1.13;;;;;;;25.92;47.00;94978.03;5017418;28;20202;-68
2022/09/10 04:31:49;;;;;;;1.30;1.20;;;;;;;25.82;46.81;94985.84;5048228;28;20189;-68
2022/09/10 04:34:17;;;;;;;0.73;0.73;;;;;;;25.83;46.83;94996.22;5034158;28;20190;-69
2022/09/10 04:36:44;;;;;;;0.40;0.40;;;;;;;25.93;46.53;94997.56;5047958;28;20591;-69
2022/09/10 04:39:13;;;;;;;1.93;1.50;;;;;;;25.79;46.66;94997.25;5031019;28;20240;-68
2022/09/10 04:41:41;;;;;;;0.83;0.73;;;;;;;26.02;45.95;94995.50;5033369;28;20658;-69
2022/09/10 04:44:09;;;;;;;2.37;1.50;;;;;;;26.17;45.95;94989.34;5032261;28;20309;-67
2022/09/10 04:46:36;;;;;;;0.47;0.47;;;;;;;26.03;46.61;94978.25;5030903;28;20228;-67
2022/09/10 04:49:07;;;;;;;1.33;1.00;;;;;;;25.95;46.17;94973.84;5040558;28;20193;-70
2022/09/10 04:51:34;;;;;;;1.23;1.13;;;;;;;25.72;47.32;94976.41;5030692;28;20309;-67
2022/09/10 04:54:01;;;;;;;1.57;1.47;;;;;;;26.03;46.92;94975.56;5047572;28;20220;-69
2022/09/10 04:56:32;;;;;;;2.20;2.00;;;;;;;26.06;46.80;94960.72;5036121;28;20256;-68
2022/09/10 04:58:59;;;;;;;1.10;1.00;;;;;;;25.82;47.84;94949.03;5026104;28;20291;-68
2022/09/10 05:01:30;;;;;;;0.73;0.73;;;;;;;26.13;47.38;94953.56;5037720;28;20233;-68
2022/09/10 05:03:56;;;;;;;1.03;1.00;;;;;;;26.13;46.83;94958.94;5032944;28;20224;-67
2022/09/10 05:06:24;;;;;;;2.67;2.23;;;;;;;26.18;47.09;94965.94;5027531;28;20208;-69
2022/09/10 05:08:51;;;;;;;1.13;1.03;;;;;;;26.14;47.00;94960.50;5041892;28;20731;-67
2022/09/10 05:11:18;;;;;;;1.20;1.07;;;;;;;25.80;46.85;94962.00;5030778;28;20194;-68
2022/09/10 05:13:46;;;;;;;1.67;1.57;;;;;;;25.22;48.55;94960.22;5030895;28;20217;-69
2022/09/10 05:16:17;;;;;;;0.93;0.93;;;;;;;25.46;48.07;94973.50;5035495;28;20209;-67
2022/09/10 05:18:44;;;;;;;0.93;0.77;;;;;;;25.80;47.54;94972.00;5050588;28;20197;-67
2022/09/10 05:21:12;;;;;;;1.70;0.90;;;;;;;25.91;47.55;94981.06;5031353;28;20205;-68
2022/09/10 05:23:40;;;;;;;1.70;1.60;;;;;;;26.27;46.78;94986.09;5047062;28;20599;-70
2022/09/10 05:26:09;;;;;;;0.67;0.60;;;;;;;26.18;47.18;94977.47;5046828;28;20252;-68
2022/09/10 05:28:36;;;;;;;0.73;0.73;;;;;;;25.96;48.02;94986.16;5030017;28;20297;-68
2022/09/10 05:31:06;;;;;;;5.33;2.20;;;;;;;26.29;47.34;94994.59;5030074;28;20280;-69
2022/09/10 05:33:33;;;;;;;0.60;0.60;;;;;;;26.26;47.42;95000.66;5021996;28;20198;-67
2022/09/10 05:36:00;;;;;;;4.63;1.23;;;;;;;26.09;48.14;94995.69;5025156;28;20301;-68
2022/09/10 05:38:28;;;;;;;8.60;1.93;;;;;;;26.03;47.83;95002.44;5016361;28;20220;-67
2022/09/10 05:40:56;;;;;;;1.73;0.93;;;;;;;26.02;48.15;94998.19;5030169;28;20279;-66
2022/09/10 05:43:26;;;;;;;1.03;1.03;;;;;;;25.74;48.67;95000.22;5046209;28;20213;-69
2022/09/10 05:45:54;;;;;;;0.67;0.67;;;;;;;25.91;47.94;94994.50;5029752;28;20617;-69
2022/09/10 05:48:21;;;;;;;1.50;1.40;;;;;;;25.50;48.73;94984.31;5031080;28;20247;-69
2022/09/10 05:50:48;;;;;;;1.07;0.97;;;;;;;25.39;49.26;94972.53;5021861;28;20225;-69
2022/09/10 05:53:15;;;;;;;1.53;1.07;;;;;;;25.35;49.24;94982.34;5025388;28;20320;-67
2022/09/10 05:55:44;;;;;;;1.20;1.00;;;;;;;25.22;49.63;94976.31;5041482;28;20197;-66
2022/09/10 05:58:12;;;;;;;0.77;0.77;;;;;;;25.64;48.84;94979.25;5020435;28;20227;-68
2022/09/10 06:00:42;;;;;;;0.73;0.70;;;;;;;25.66;48.44;94983.16;5030957;28;20658;-70
2022/09/10 06:03:09;;;;;;;3.80;2.13;;;;;;;25.10;49.77;94981.75;5031294;28;20192;-67
2022/09/10 06:05:51;;;;;;;2.77;1.20;;;;;;;26.04;47.34;94983.31;5045935;28;20223;-68
2022/09/10 06:08:23;;;;;;;1.30;1.20;;;;;;;26.30;46.03;94985.41;5029445;28;20201;-67
2022/09/10 06:11:05;;;;;;;0.90;0.90;;;;;;;25.98;46.90;94983.91;5045714;28;20194;-69
2022/09/10 06:13:41;;;;;;;0.80;0.80;;;;;;;25.92;47.02;94979.94;5045990;28;20204;-67
2022/09/10 06:16:08;;;;;;;1.33;1.23;;;;;;;26.21;46.98;94987.50;5029120;28;20269;-67
2022/09/10 06:18:37;;;;;;;5.53;1.50;;;;;;;25.60;48.23;94973.06;5045768;28;20605;-69
2022/09/10 06:21:14;;;;;;;1.60;0.93;;;;;;;25.45;49.31;94987.25;5046094;28;20271;-68
2022/09/10 06:23:44;;;;;;;1.50;1.40;;;;;;;25.65;48.82;94992.38;5033263;28;20197;-70
2022/09/10 06:26:18;;;;;;;1.00;0.93;;;;;;;25.59;49.12;94985.69;5036259;28;20260;-70
2022/09/10 06:28:51;;;;;;;3.00;1.07;;;;;;;25.95;48.65;94979.22;5035114;28;20560;-67
2022/09/10 06:31:19;;;;;;;0.83;0.83;;;;;;;26.21;47.67;94974.06;5026760;28;20243;-69
2022/09/10 06:33:48;;;;;;;1.23;1.13;;;;;;;26.08;48.21;94972.63;5019001;28;20198;-67
2022/09/10 06:36:22;;;;;;;1.27;0.90;;;;;;;26.53;46.54;94978.19;5027164;28;20205;-67
2022/09/10 06:38:50;;;;;;;0.93;0.83;;;;;;;26.46;46.91;94972.66;5029530;28;20244;-67
2022/09/10 06:41:20;;;;;;;1.03;0.97;;;;;;;26.55;46.36;94986.69;5028852;28;20193;-68
2022/09/10 06:43:53;;;;;;;1.37;1.27;;;;;;;26.24;46.67;94992.16;5045635;28;20676;-66
2022/09/10 06:46:41;;;;;;;1.53;1.20;;;;;;;25.98;47.25;94994.66;5030338;28;20200;-67
2022/09/10 06:49:30;;;;;;;1.10;1.03;;;;;;;26.00;47.39;94992.41;5032053;28;20216;-69
2022/09/10 06:51:57;;;;;;;1.73;1.57;;;;;;;26.11;46.86;94982.69;5028264;28;20189;-68
2022/09/10 06:54:25;;;;;;;1.03;1.03;;;;;;;25.72;48.59;94981.00;5045248;28;20280;-67
2022/09/10 06:56:56;;;;;;;0.83;0.57;;;;;;;26.22;47.09;94978.34;5015866;28;20196;-69
2022/09/10 06:59:24;;;;;;;0.47;0.47;;;;;;;26.49;46.54;94972.00;5025035;28;20218;-67
2022/09/10 07:01:54;;;;;;;0.80;0.80;;;;;;;26.25;47.07;94972.25;5038357;28;20201;-68
2022/09/10 07:04:20;;;;;;;1.03;1.03;;;;;;;26.23;48.27;94979.09;5044869;28;20201;-70
2022/09/10 07:06:48;;;;;;;1.20;1.13;;;;;;;26.33;47.31;94975.88;5045161;28;20541;-68
2022/09/10 07:09:16;;;;;;;0.93;0.93;;;;;;;27.42;44.78;94970.69;5030825;28;20288;-68
2022/09/10 07:12:03;;;;;;;0.47;0.47;;;;;;;27.36;45.28;94971.31;5016203;28;20253;-70
2022/09/10 07:14:33;;;;;;;10.10;3.67;;;;;;;27.01;45.76;94972.25;5044610;28;20201;-69
2022/09/10 07:17:04;;;;;;;0.67;0.67;;;;;;;26.87;45.50;94977.38;5044952;28;20210;-68
2022/09/10 07:19:35;;;;;;;1.37;1.27;;;;;;;27.32;44.93;94975.84;5014098;28;20190;-67
2022/09/10 07:22:05;;;;;;;0.83;0.83;;;;;;;27.31;44.26;94974.31;5028451;28;20220;-66
2022/09/10 07:24:33;;;;;;;3.30;1.23;;;;;;;27.31;45.43;94979.69;5028049;28;20219;-69
2022/09/10 07:27:09;;;;;;;1.00;0.90;;;;;;;28.03;43.24;94973.16;5045017;28;20205;-68
2022/09/10 07:29:39;;;;;;;0.97;0.97;;;;;;;28.52;42.64;94968.44;5025305;28;20186;-67
2022/09/10 07:32:11;;;;;;;1.67;1.57;;;;;;;28.05;43.77;94960.09;5019257;28;20193;-69
2022/09/10 07:34:40;;;;;;;1.07;1.07;;;;;;;27.17;44.25;94980.19;5044955;28;20577;-67
2022/09/10 07:37:07;;;;;;;2.13;1.40;;;;;;;28.21;43.00;94979.56;5045218;28;20193;-68
2022/09/10 07:39:34;;;;;;;0.97;0.90;;;;;;;28.61;41.59;94966.25;5042548;28;20237;-69
2022/09/10 07:42:01;;;;;;;1.07;1.07;;;;;;;28.65;41.37;94967.06;5016282;28;20805;-68
2022/09/10 07:44:33;;;;;;;1.00;1.00;;;;;;;27.78;44.48;94972.00;5027106;28;20205;-65
2022/09/10 07:47:02;;;;;;;23.73;4.07;;;;;;;28.30;41.75;94971.25;5014897;28;20296;-70
2022/09/10 07:49:30;;;;;;;2.83;1.17;;;;;;;28.67;41.55;94980.19;5027968;28;20201;-67
2022/09/10 07:51:58;;;;;;;0.73;0.73;;;;;;;28.66;42.39;94974.03;5027937;28;20664;-68
2022/09/10 07:54:30;;;;;;;1.80;1.70;;;;;;;28.92;41.65;94970.47;5015990;28;20201;-69
2022/09/10 07:56:59;;;;;;;1.73;1.60;;;;;;;28.90;40.03;94973.50;5013794;28;20192;-66
2022/09/10 07:59:26;;;;;;;1.57;1.47;;;;;;;28.75;41.53;94971.03;5027756;28;20224;-66
2022/09/10 08:01:59;;;;;;;1.33;1.23;;;;;;;29.81;39.10;94962.06;5044091;28;20294;-66
2022/09/10 08:04:31;;;;;;;1.07;0.97;;;;;;;29.67;39.74;94961.94;5031617;28;20209;-67
2022/09/10 08:07:06;;;;;;;1.77;1.27;;;;;;;28.99;40.88;94974.00;5044590;28;20656;-69
2022/09/10 08:09:36;;;;;;;0.67;0.67;;;;;;;29.45;39.90;94969.06;5044848;28;20303;-68
2022/09/10 08:12:06;;;;;;;1.40;1.30;;;;;;;29.28;38.87;94966.22;5012463;28;20636;-68
2022/09/10 08:14:33;;;;;;;0.87;0.87;;;;;;;30.13;38.10;94967.69;5011625;28;20609;-67
2022/09/10 08:17:00;;;;;;;1.30;0.90;;;;;;;29.10;40.29;94973.34;5027998;28;20198;-67
2022/09/10 08:19:28;;;;;;;3.57;1.20;;;;;;;29.30;39.06;94970.13;5043943;28;20255;-68
2022/09/10 08:21:55;;;;;;;1.53;1.43;;;;;;;29.73;38.10;94968.56;5001511;28;20198;-69
2022/09/10 08:24:30;;;;;;;1.93;1.20;;;;;;;29.79;38.32;94959.75;5041554;28;20208;-66
2022/09/10 08:26:57;;;;;;;0.73;0.73;;;;;;;29.97;38.60;94967.97;5026783;28;20232;-68
2022/09/10 08:29:24;;;;;;;0.90;0.90;;;;;;;29.85;38.92;94968.28;5026136;28;20256;-70
2022/09/10 08:31:51;;;;;;;1.77;1.67;;;;;;;29.17;40.56;94962.66;5029245;28;20201;-67
2022/09/10 08:34:25;;;;;;;4.20;2.03;;;;;;;29.45;40.03;94950.16;5045212;28;20770;-69
2022/09/10 08:37:02;;;;;;;1.00;1.00;;;;;;;29.24;40.44;94954.59;5031345;28;20201;-69
2022/09/10 08:39:31;;;;;;;1.37;0.63;;;;;;;29.28;39.48;94944.63;5033426;28;20784;-68
2022/09/10 08:42:04;;;;;;;1.27;1.20;;;;;;;29.94;38.99;94941.69;5031428;28;20189;-68
2022/09/10 08:44:53;;;;;;;1.13;1.10;;;;;;;30.38;37.81;94945.03;5039512;28;20237;-67
2022/09/10 08:48:15;;;;;;;5.80;1.90;;;;;;;30.10;38.30;94944.88;5037664;28;20229;-66
2022/09/10 08:51:12;;;;;;;1.83;1.23;;;;;;;30.17;38.39;94941.41;5037255;28;20201;-68
2022/09/10 08:53:52;;;;;;;0.93;0.90;;;;;;;29.62;40.78;94951.47;5030475;28;20197;-65
2022/09/10 08:56:22;;;;;;;2.17;1.53;;;;;;;30.14;38.56;94937.56;5034778;28;20256;-67
2022/09/10 08:59:16;;;;;;;1.73;1.10;;;;;;;30.18;37.43;94943.78;5027199;28;20201;-68
2022/09/10 09:02:00;;;;;;;3.03;1.73;;;;;;;30.43;37.40;94939.28;5047473;28;20212;-68
2022/09/10 09:04:28;;;;;;;1.13;0.70;;;;;;;30.75;37.41;94942.88;5034094;28;20239;-68
2022/09/10 09:07:01;;;;;;;0.60;0.60;;;;;;;30.57;38.30;94943.94;5019307;28;20217;-68
2022/09/10 09:09:29;;;;;;;0.93;0.93;;;;;;;29.92;38.34;94944.00;5016870;28;20200;-68
2022/09/10 09:12:14;;;;;;;2.13;1.03;;;;;;;30.43;37.60;94939.28;5031002;28;20611;-68
2022/09/10 09:14:49;;;;;;;1.27;1.20;;;;;;;30.15;37.31;94939.09;5047708;28;20198;-68
2022/09/10 09:17:57;;;;;;;2.13;1.67;;;;;;;30.67;36.46;94930.50;5030659;28;20207;-69
2022/09/10 09:20:59;;;;;;;0.73;0.73;;;;;;;30.78;36.59;94935.94;5019088;28;20288;-68
2022/09/10 09:23:41;;;;;;;2.50;1.77;;;;;;;30.22;37.15;94928.31;4988333;28;20197;-70
2022/09/10 09:26:35;;;;;;;1.33;0.97;;;;;;;30.48;36.99;94922.69;5016772;28;20859;-71
2022/09/10 09:29:27;;;;;;;1.20;1.10;;;;;;;30.65;36.71;94908.47;5046881;28;20200;-67
2022/09/10 09:31:59;;;;;;;1.70;1.60;;;;;;;30.46;38.06;94911.47;5035677;28;20208;-68
2022/09/10 09:34:35;;;;;;;1.43;1.33;;;;;;;30.75;37.15;94906.91;5030388;28;20197;-66
2022/09/10 09:37:11;;;;;;;2.33;2.00;;;;;;;30.89;36.46;94891.50;5046763;28;20221;-67
2022/09/10 09:39:54;;;;;;;5.73;3.43;;;;;;;30.64;36.72;94890.66;5029672;28;20239;-70
2022/09/10 09:42:31;;;;;;;0.90;0.90;;;;;;;30.63;37.00;94894.53;5031278;28;20255;-68
2022/09/10 09:45:17;;;;;;;0.77;0.77;;;;;;;30.55;37.21;94882.13;5045747;28;20239;-69
2022/09/10 09:47:45;;;;;;;1.47;1.20;;;;;;;30.60;36.93;94879.06;5046836;28;20664;-69
2022/09/10 09:50:13;;;;;;;7.17;2.03;;;;;;;30.33;37.52;94875.09;5024501;28;20248;-70
2022/09/10 09:52:43;;;;;;;2.87;1.83;;;;;;;30.70;37.22;94867.50;5022271;28;20624;-68
2022/09/10 09:55:28;;;;;;;3.10;2.10;;;;;;;30.83;37.37;94871.41;5017062;28;20693;-68
2022/09/10 09:58:19;;;;;;;1.47;1.17;;;;;;;30.08;37.85;94868.03;5019665;28;20205;-69
2022/09/10 10:01:02;;;;;;;0.93;0.60;;;;;;;31.07;36.90;94863.69;5016718;28;20193;-68
2022/09/10 10:03:57;;;;;;;0.50;0.50;;;;;;;31.30;36.93;94856.75;5031021;28;20312;-70
2022/09/10 10:06:28;;;;;;;0.83;0.83;;;;;;;31.26;37.31;94849.81;5019755;28;20229;-71
2022/09/10 10:09:37;;;;;;;1.80;1.43;;;;;;;31.82;35.53;94838.91;5030695;28;20212;-70
2022/09/10 10:12:06;;;;;;;0.70;0.70;;;;;;;31.14;35.59;94832.00;4975915;28;20778;-69
2022/09/10 10:14:40;;;;;;;4.67;2.40;;;;;;;31.90;35.26;94829.59;4969507;28;20777;-69
2022/09/10 10:17:36;;;;;;;0.83;0.83;;;;;;;32.04;34.71;94831.50;5003940;28;20209;-70
2022/09/10 10:20:09;;;;;;;19.97;2.50;;;;;;;32.70;34.93;94825.75;5019464;28;20194;-70
2022/09/10 10:22:38;;;;;;;0.60;0.60;;;;;;;33.13;33.74;94815.38;5030216;28;20683;-69
2022/09/10 10:25:33;;;;;;;2.63;2.07;;;;;;;33.13;33.76;94811.91;5030460;28;20639;-67
2022/09/10 10:28:00;;;;;;;1.43;1.33;;;;;;;32.58;34.21;94804.50;5025552;28;20201;-66
2022/09/10 10:30:30;;;;;;;2.27;1.37;;;;;;;33.18;33.76;94803.31;5030632;28;20247;-71
2022/09/10 10:32:59;;;;;;;1.07;0.97;;;;;;;32.96;33.75;94805.44;5027488;28;20599;-67
2022/09/10 10:35:28;;;;;;;3.00;1.37;;;;;;;33.33;33.06;94807.44;5020437;28;20204;-67
2022/09/10 10:38:17;;;;;;;1.50;1.30;;;;;;;33.01;33.35;94809.69;5016503;28;20714;-68
2022/09/10 10:40:50;;;;;;;1.03;1.00;;;;;;;33.60;33.15;94808.38;5028603;28;20225;-69
2022/09/10 10:43:46;;;;;;;0.77;0.77;;;;;;;33.22;32.26;94801.34;5026118;28;20285;-66
2022/09/10 10:46:19;;;;;;;1.23;1.17;;;;;;;33.30;32.89;94789.25;5024710;28;20216;-69
2022/09/10 10:49:32;;;;;;;1.03;1.03;;;;;;;33.52;31.93;94785.19;5030247;28;20189;-67
2022/09/10 10:52:14;;;;;;;0.80;0.80;;;;;;;33.12;32.38;94783.22;5007474;28;20228;-67
2022/09/10 10:55:11;;;;;;;2.23;2.07;;;;;;;33.70;32.57;94785.75;5028143;28;20205;-69
2022/09/10 10:58:00;;;;;;;0.67;0.67;;;;;;;33.94;32.79;94787.44;5016774;28;20205;-70
2022/09/10 11:00:39;;;;;;;5.40;1.23;;;;;;;34.16;30.72;94780.56;5016079;28;20205;-69
2022/09/10 11:03:14;;;;;;;0.53;0.53;;;;;;;34.36;30.42;94761.66;5032849;28;20223;-65
2022/09/10 11:05:51;;;;;;;10.57;2.03;;;;;;;34.54;30.50;94764.94;5034402;28;20216;-68
2022/09/10 11:08:31;;;;;;;1.47;1.37;;;;;;;34.65;30.75;94765.53;5030189;28;20342;-66
2022/09/10 11:11:48;;;;;;;12.57;2.03;;;;;;;34.47;30.54;94759.59;5030113;28;20228;-68
2022/09/10 11:15:01;;;;;;;1.17;1.07;;;;;;;33.81;31.94;94767.38;5007657;28;20201;-70
2022/09/10 11:17:45;;;;;;;1.93;1.73;;;;;;;34.55;30.29;94769.94;4949282;29;20685;-68
2022/09/10 11:20:22;;;;;;;1.17;1.13;;;;;;;34.48;30.11;94767.34;4984067;28;20683;-68
2022/09/10 11:23:17;;;;;;;1.47;1.33;;;;;;;34.44;30.55;94785.66;5019022;28;20221;-67
2022/09/10 11:25:55;;;;;;;9.97;1.97;;;;;;;33.31;32.59;94834.25;5029813;28;20221;-66
2022/09/10 11:29:12;;;;;;;3.13;1.60;;;;;;;30.83;40.53;94865.22;5017772;28;20189;-71
2022/09/10 11:31:48;;;;;;;5.50;2.03;;;;;;;30.28;42.42;94850.38;5025259;28;20200;-64
2022/09/10 11:34:40;;;;;;;0.70;0.70;;;;;;;29.18;47.20;94867.06;5018856;28;20197;-65
2022/09/10 11:37:16;;;;;;;1.10;0.93;;;;;;;28.17;47.72;94868.28;5010087;28;20272;-73
2022/09/10 11:39:49;;;;;;;0.37;0.37;;;;;;;27.63;47.99;94865.22;5026024;28;20232;-68
2022/09/10 11:42:29;;;;;;;1.90;1.00;;;;;;;26.50;49.31;94876.78;5029225;28;20230;-72
2022/09/10 11:45:16;;;;;;;0.37;0.37;;;;;;;27.58;47.65;94852.09;5029153;28;20203;-67
2022/09/10 11:47:49;;;;;;;2.00;0.83;;;;;;;27.89;47.46;94843.66;5029548;28;20650;-69
2022/09/10 11:50:22;;;;;;;0.57;0.57;;;;;;;28.22;47.60;94857.19;5024251;28;20250;-66
2022/09/10 11:52:50;;;;;;;0.87;0.87;;;;;;;28.13;47.36;94851.31;5021629;28;20288;-67
2022/09/10 11:55:17;;;;;;;1.00;0.73;;;;;;;27.91;47.86;94846.78;5028243;28;20645;-68
2022/09/10 11:58:02;;;;;;;0.50;0.50;;;;;;;28.12;47.33;94852.44;5016526;28;20554;-68
2022/09/10 12:00:35;;;;;;;0.87;0.87;;;;;;;28.01;47.68;94867.69;5029498;28;20207;-68
2022/09/10 12:03:20;;;;;;;1.40;1.20;;;;;;;27.77;47.64;94878.91;5021130;28;20337;-66
2022/09/10 12:06:09;;;;;;;0.33;0.33;;;;;;;28.06;48.10;94878.16;5022466;28;20623;-68